createdAt,value
2018-06-02T00:02:06.019Z,16.60
2018-06-02T00:04:33.541Z,16.70
2018-06-02T00:07:01.813Z,16.70
2018-06-02T00:09:29.355Z,16.60
2018-06-02T00:11:56.870Z,16.90
2018-06-02T00:14:24.393Z,17.20
2018-06-02T00:16:52.662Z,17.20
2018-06-02T00:19:20.958Z,17.10
2018-06-02T00:21:48.465Z,17.00
2018-06-02T00:24:15.989Z,16.90
2018-06-02T00:26:43.513Z,16.80
2018-06-02T00:29:11.786Z,16.50
2018-06-02T00:31:40.078Z,16.50
2018-06-02T00:34:07.590Z,16.50
2018-06-02T00:36:35.113Z,16.50
2018-06-02T00:39:02.624Z,16.40
2018-06-02T00:41:30.917Z,16.30
2018-06-02T00:43:58.422Z,16.30
2018-06-02T00:46:25.950Z,16.30
2018-06-02T00:48:53.462Z,16.40
2018-06-02T00:51:21.754Z,16.80
2018-06-02T00:53:50.027Z,16.80
2018-06-02T00:56:18.323Z,16.80
2018-06-02T00:58:45.821Z,16.80
2018-06-02T01:01:13.358Z,16.60
2018-06-02T01:03:40.862Z,16.60
2018-06-02T01:06:09.158Z,16.50
2018-06-02T01:08:36.666Z,16.50
2018-06-02T01:11:04.194Z,16.30
2018-06-02T01:13:31.693Z,16.00
2018-06-02T01:15:59.985Z,15.60
2018-06-02T01:18:28.257Z,15.60
2018-06-02T01:20:56.661Z,15.60
2018-06-02T01:23:24.090Z,15.60
2018-06-02T01:25:52.390Z,15.80
2018-06-02T01:28:19.898Z,15.80
2018-06-02T01:30:47.438Z,15.90
2018-06-02T01:33:14.951Z,16.20
2018-06-02T01:35:42.497Z,16.10
2018-06-02T01:38:10.007Z,16.10
2018-06-02T01:40:37.547Z,16.00
2018-06-02T01:43:05.057Z,16.10
2018-06-02T01:45:32.589Z,15.90
2018-06-02T01:48:00.102Z,15.90
2018-06-02T01:50:27.631Z,15.90
2018-06-02T01:52:55.142Z,16.00
2018-06-02T01:55:22.673Z,15.80
2018-06-02T01:57:50.173Z,15.40
2018-06-02T02:00:17.706Z,15.40
2018-06-02T02:02:45.219Z,15.50
2018-06-02T02:05:12.743Z,15.70
2018-06-02T02:07:40.263Z,16.00
2018-06-02T02:10:07.805Z,15.90
2018-06-02T02:12:35.310Z,15.70
2018-06-02T02:15:02.846Z,15.60
2018-06-02T02:17:30.367Z,15.20
2018-06-02T02:19:57.903Z,15.10
2018-06-02T02:22:25.411Z,15.20
2018-06-02T02:24:52.958Z,15.20
2018-06-02T02:27:20.466Z,15.40
2018-06-02T02:29:48.754Z,15.50
2018-06-02T02:32:16.282Z,15.50
2018-06-02T02:34:44.558Z,15.70
2018-06-02T02:37:12.854Z,16.00
2018-06-02T02:39:40.371Z,16.00
2018-06-02T02:42:07.900Z,15.90
2018-06-02T02:44:35.412Z,15.80
2018-06-02T02:47:03.711Z,15.90
2018-06-02T02:49:31.219Z,15.90
2018-06-02T02:51:58.756Z,15.80
2018-06-02T02:54:26.261Z,15.60
2018-06-02T02:56:53.798Z,15.40
2018-06-02T02:59:22.070Z,15.60
2018-06-02T03:01:50.361Z,15.60
2018-06-02T03:04:18.630Z,15.60
2018-06-02T03:06:46.931Z,15.60
2018-06-02T03:09:14.446Z,15.60
2018-06-02T03:11:41.979Z,15.50
2018-06-02T03:14:09.490Z,15.40
2018-06-02T03:16:37.017Z,15.40
2018-06-02T03:19:05.302Z,15.30
2018-06-02T03:21:32.838Z,15.30
2018-06-02T03:24:00.345Z,15.40
2018-06-02T03:26:27.880Z,15.30
2018-06-02T03:28:55.386Z,15.20
2018-06-02T03:31:22.936Z,15.30
2018-06-02T03:33:50.437Z,15.00
2018-06-02T03:36:18.729Z,15.00
2018-06-02T03:38:46.259Z,15.00
2018-06-02T03:41:14.562Z,15.20
2018-06-02T03:43:42.070Z,15.20
2018-06-02T03:46:09.599Z,15.30
2018-06-02T03:48:37.101Z,15.20
2018-06-02T03:51:05.396Z,15.30
2018-06-02T03:53:32.908Z,15.30
2018-06-02T03:56:00.482Z,15.00
2018-06-02T03:58:27.990Z,15.10
2018-06-02T04:00:55.531Z,15.10
2018-06-02T04:03:23.041Z,14.80
2018-06-02T04:05:50.566Z,14.90
2018-06-02T04:08:18.079Z,15.00
2018-06-02T04:10:46.370Z,15.10
2018-06-02T04:13:13.873Z,15.10
2018-06-02T04:15:41.411Z,15.10
2018-06-02T04:18:08.917Z,15.10
2018-06-02T04:20:37.217Z,15.20
2018-06-02T04:23:04.732Z,15.20
2018-06-02T04:25:32.262Z,15.10
2018-06-02T04:27:59.769Z,15.00
2018-06-02T04:30:28.072Z,15.30
2018-06-02T04:32:55.573Z,15.20
2018-06-02T04:35:23.085Z,15.40
2018-06-02T04:37:50.617Z,15.60
2018-06-02T04:40:18.121Z,15.70
2018-06-02T04:42:45.651Z,15.80
2018-06-02T04:45:13.162Z,16.00
2018-06-02T04:47:40.710Z,16.10
2018-06-02T04:50:08.215Z,16.10
2018-06-02T04:52:35.743Z,16.20
2018-06-02T04:55:04.019Z,16.40
2018-06-02T04:57:32.313Z,16.30
2018-06-02T04:59:59.817Z,16.20
2018-06-02T05:02:27.347Z,15.90
2018-06-02T05:04:54.853Z,15.80
2018-06-02T05:07:23.155Z,16.00
2018-06-02T05:09:50.666Z,16.00
2018-06-02T05:12:18.195Z,15.90
2018-06-02T05:14:45.737Z,16.10
2018-06-02T05:17:13.257Z,16.30
2018-06-02T05:19:41.525Z,16.60
2018-06-02T05:22:09.830Z,16.70
2018-06-02T05:24:37.337Z,16.70
2018-06-02T05:27:04.869Z,16.80
2018-06-02T05:29:32.375Z,16.90
2018-06-02T05:32:00.666Z,17.20
2018-06-02T05:34:28.175Z,17.20
2018-06-02T05:36:55.722Z,17.40
2018-06-02T05:39:23.286Z,17.50
2018-06-02T05:41:50.817Z,17.60
2018-06-02T05:44:18.329Z,17.70
2018-06-02T05:46:46.622Z,18.00
2018-06-02T05:49:14.129Z,18.00
2018-06-02T05:51:42.426Z,18.00
2018-06-02T05:54:10.703Z,17.90
2018-06-02T05:56:38.997Z,17.90
2018-06-02T05:59:06.510Z,17.90
2018-06-02T06:01:34.046Z,18.10
2018-06-02T06:04:01.549Z,18.00
2018-06-02T06:06:29.847Z,18.30
2018-06-02T06:08:57.348Z,18.20
2018-06-02T06:11:24.883Z,18.40
2018-06-02T06:13:52.390Z,18.60
2018-06-02T06:16:20.682Z,18.60
2018-06-02T06:18:48.207Z,18.60
2018-06-02T06:21:15.744Z,18.70
2018-06-02T06:23:43.269Z,18.70
2018-06-02T06:26:10.802Z,18.90
2018-06-02T06:28:38.707Z,19.00
2018-06-02T06:31:06.243Z,19.10
2018-06-02T06:33:33.749Z,19.40
2018-06-02T06:36:01.283Z,19.60
2018-06-02T06:38:28.801Z,19.70
2018-06-02T06:40:56.342Z,19.80
2018-06-02T06:43:24.618Z,20.10
2018-06-02T06:45:52.885Z,19.80
2018-06-02T06:48:21.187Z,19.90
2018-06-02T06:50:48.690Z,19.90
2018-06-02T06:53:16.269Z,20.00
2018-06-02T06:55:44.537Z,20.20
2018-06-02T06:58:12.842Z,20.30
2018-06-02T07:00:40.346Z,20.30
2018-06-02T07:03:07.874Z,20.30
2018-06-02T07:05:35.382Z,20.50
2018-06-02T07:08:03.682Z,20.70
2018-06-02T07:10:31.563Z,20.70
2018-06-02T07:12:59.090Z,21.10
2018-06-02T07:15:27.366Z,21.30
2018-06-02T07:17:55.667Z,21.50
2018-06-02T07:20:23.175Z,21.50
2018-06-02T07:22:50.706Z,21.70
2018-06-02T07:25:18.220Z,21.80
2018-06-02T07:27:45.754Z,22.10
2018-06-02T07:30:14.047Z,22.30
2018-06-02T07:32:41.582Z,22.30
2018-06-02T07:35:09.857Z,22.50
2018-06-02T07:37:38.149Z,22.60
2018-06-02T07:40:05.706Z,22.60
2018-06-02T07:42:33.995Z,22.30
2018-06-02T07:45:01.509Z,22.30
2018-06-02T07:47:29.046Z,22.40
2018-06-02T07:49:56.682Z,22.20
2018-06-02T07:52:24.093Z,22.00
2018-06-02T07:54:52.371Z,22.20
2018-06-02T07:57:20.674Z,22.60
2018-06-02T07:59:48.194Z,22.50
2018-06-02T08:02:16.487Z,22.60
2018-06-02T08:04:44.006Z,22.60
2018-06-02T08:07:11.533Z,22.60
2018-06-02T08:09:39.042Z,22.30
2018-06-02T08:12:07.353Z,22.20
2018-06-02T08:14:34.857Z,22.20
2018-06-02T08:17:02.399Z,22.60
2018-06-02T08:19:29.910Z,23.20
2018-06-02T08:21:57.437Z,23.40
2018-06-02T08:24:25.717Z,23.60
2018-06-02T08:26:54.006Z,23.70
2018-06-02T08:29:21.514Z,23.60
2018-06-02T08:31:49.038Z,23.50
2018-06-02T08:34:16.548Z,22.80
2018-06-02T08:36:44.844Z,23.20
2018-06-02T08:39:12.358Z,23.20
2018-06-02T08:41:39.898Z,23.80
2018-06-02T08:44:08.191Z,23.80
2018-06-02T08:46:35.822Z,23.70
2018-06-02T08:49:03.335Z,23.70
2018-06-02T08:51:30.863Z,23.00
2018-06-02T08:53:58.382Z,22.90
2018-06-02T08:56:25.930Z,22.80
2018-06-02T08:58:53.464Z,23.00
2018-06-02T09:01:21.734Z,24.00
2018-06-02T09:03:50.034Z,24.60
2018-06-02T09:06:17.547Z,24.50
2018-06-02T09:08:45.088Z,24.70
2018-06-02T09:11:12.598Z,24.50
2018-06-02T09:13:40.135Z,23.90
2018-06-02T09:16:08.414Z,24.00
2018-06-02T09:18:35.945Z,23.90
2018-06-02T09:21:03.455Z,24.20
2018-06-02T09:23:30.989Z,24.40
2018-06-02T09:25:58.498Z,24.70
2018-06-02T09:28:26.022Z,24.70
2018-06-02T09:30:53.577Z,24.60
2018-06-02T09:33:21.105Z,24.60
2018-06-02T09:35:49.378Z,24.60
2018-06-02T09:38:17.678Z,24.60
2018-06-02T09:40:45.181Z,24.60
2018-06-02T09:43:12.715Z,24.60
2018-06-02T09:45:40.221Z,24.50
2018-06-02T09:48:08.518Z,24.30
2018-06-02T09:50:36.032Z,24.30
2018-06-02T09:53:04.339Z,24.00
2018-06-02T09:55:31.852Z,23.90
2018-06-02T09:57:59.382Z,23.90
2018-06-02T10:00:26.924Z,23.70
2018-06-02T10:02:54.461Z,23.60
2018-06-02T10:05:21.986Z,23.40
2018-06-02T10:07:49.522Z,23.00
2018-06-02T10:10:17.030Z,22.90
2018-06-02T10:12:44.557Z,22.90
2018-06-02T10:15:12.070Z,23.00
2018-06-02T10:17:39.606Z,23.20
2018-06-02T10:20:07.116Z,23.60
2018-06-02T10:22:34.644Z,23.70
2018-06-02T10:25:02.154Z,24.10
2018-06-02T10:27:30.456Z,25.00
2018-06-02T10:29:57.966Z,24.90
2018-06-02T10:32:25.493Z,25.00
2018-06-02T10:34:53.762Z,24.80
2018-06-02T10:37:21.292Z,24.80
2018-06-02T10:39:48.815Z,24.80
2018-06-02T10:42:17.126Z,25.60
2018-06-02T10:44:44.641Z,25.60
2018-06-02T10:47:12.165Z,26.00
2018-06-02T10:49:39.674Z,26.00
2018-06-02T10:52:07.975Z,26.10
2018-06-02T10:54:35.487Z,26.10
2018-06-02T10:57:03.804Z,26.60
2018-06-02T10:59:31.315Z,26.60
2018-06-02T11:01:59.626Z,26.70
2018-06-02T11:04:27.130Z,26.70
2018-06-02T11:06:54.647Z,26.90
2018-06-02T11:09:22.175Z,26.90
2018-06-02T11:11:49.694Z,26.80
2018-06-02T11:14:17.226Z,26.80
2018-06-02T11:16:44.729Z,26.40
2018-06-02T11:19:13.054Z,27.00
2018-06-02T11:21:40.614Z,27.00
2018-06-02T11:24:08.143Z,27.20
2018-06-02T11:26:35.659Z,27.30
2018-06-02T11:29:03.182Z,27.20
2018-06-02T11:31:30.689Z,27.00
2018-06-02T11:33:58.992Z,26.90
2018-06-02T11:36:26.498Z,26.90
2018-06-02T11:38:54.037Z,27.20
2018-06-02T11:41:21.551Z,27.40
2018-06-02T11:43:49.082Z,27.50
2018-06-02T11:46:16.590Z,27.80
2018-06-02T11:48:44.122Z,27.50
2018-06-02T11:51:11.629Z,27.40
2018-06-02T11:53:39.157Z,27.70
2018-06-02T11:56:06.666Z,27.80
2018-06-02T11:58:34.990Z,27.00
2018-06-02T12:01:02.514Z,27.00
2018-06-02T12:03:30.046Z,27.10
2018-06-02T12:05:57.551Z,27.50
2018-06-02T12:08:25.090Z,27.60
2018-06-02T12:10:52.669Z,27.50
2018-06-02T12:13:20.213Z,27.20
2018-06-02T12:15:47.722Z,26.90
2018-06-02T12:18:15.247Z,26.50
2018-06-02T12:20:42.747Z,26.30
2018-06-02T12:23:11.050Z,25.90
2018-06-02T12:25:38.554Z,25.90
2018-06-02T12:28:06.109Z,25.80
2018-06-02T12:30:33.618Z,25.90
2018-06-02T12:33:01.146Z,25.90
2018-06-02T12:35:28.652Z,25.90
2018-06-02T12:37:56.211Z,25.60
2018-06-02T12:40:23.718Z,25.60
2018-06-02T12:42:52.014Z,25.60
2018-06-02T12:45:19.533Z,25.50
2018-06-02T12:47:47.075Z,25.30
2018-06-02T12:50:14.591Z,25.20
2018-06-02T12:52:42.127Z,25.00
2018-06-02T12:55:10.410Z,24.30
2018-06-02T12:57:37.965Z,24.30
2018-06-02T13:00:05.482Z,24.50
2018-06-02T13:02:33.010Z,24.40
2018-06-02T13:05:00.519Z,24.60
2018-06-02T13:07:28.833Z,24.30
2018-06-02T13:09:56.337Z,24.30
2018-06-02T13:12:23.847Z,24.20
2018-06-02T13:14:51.370Z,24.20
2018-06-02T13:17:19.638Z,24.20
2018-06-02T13:19:48.021Z,24.20
2018-06-02T13:22:15.547Z,24.10
2018-06-02T13:24:43.073Z,24.30
2018-06-02T13:27:10.586Z,24.50
2018-06-02T13:29:38.878Z,25.40
2018-06-02T13:32:06.392Z,25.40
2018-06-02T13:34:33.927Z,26.10
2018-06-02T13:37:01.438Z,26.60
2018-06-02T13:39:28.978Z,27.10
2018-06-02T13:41:57.254Z,27.30
2018-06-02T13:44:25.545Z,27.60
2018-06-02T13:46:53.063Z,27.50
2018-06-02T13:49:20.590Z,27.80
2018-06-02T13:51:48.099Z,28.10
2018-06-02T13:54:16.396Z,28.20
2018-06-02T13:56:43.912Z,28.20
2018-06-02T13:59:11.441Z,28.30
2018-06-02T14:01:38.949Z,28.30
2018-06-02T14:04:07.245Z,28.80
2018-06-02T14:06:34.750Z,28.80
2018-06-02T14:09:02.283Z,28.90
2018-06-02T14:11:29.802Z,28.50
2018-06-02T14:13:57.329Z,28.00
2018-06-02T14:16:24.842Z,27.50
2018-06-02T14:18:52.369Z,27.30
2018-06-02T14:21:19.907Z,27.20
2018-06-02T14:23:48.199Z,27.40
2018-06-02T14:26:15.710Z,27.40
2018-06-02T14:28:43.247Z,27.30
2018-06-02T14:31:10.749Z,27.60
2018-06-02T14:33:39.044Z,27.20
2018-06-02T14:36:06.553Z,27.20
2018-06-02T14:38:34.088Z,27.00
2018-06-02T14:41:02.371Z,27.10
2018-06-02T14:43:29.898Z,27.10
2018-06-02T14:45:57.407Z,27.20
2018-06-02T14:48:24.938Z,26.90
2018-06-02T14:50:52.446Z,26.90
2018-06-02T14:53:20.743Z,27.80
2018-06-02T14:55:48.251Z,27.80
2018-06-02T14:58:15.779Z,27.90
2018-06-02T15:00:43.290Z,27.90
2018-06-02T15:03:10.823Z,28.30
2018-06-02T15:05:39.113Z,28.00
2018-06-02T15:08:07.406Z,27.30
2018-06-02T15:10:34.914Z,27.20
2018-06-02T15:13:02.446Z,27.60
2018-06-02T15:15:29.953Z,27.70
2018-06-02T15:17:58.248Z,28.00
2018-06-02T15:20:25.866Z,28.00
2018-06-02T15:22:53.378Z,28.00
2018-06-02T15:25:20.930Z,27.90
2018-06-02T15:27:48.445Z,28.50
2018-06-02T15:30:16.738Z,28.70
2018-06-02T15:32:44.253Z,28.70
2018-06-02T15:35:11.784Z,29.00
2018-06-02T15:37:39.294Z,29.10
2018-06-02T15:40:07.592Z,29.50
2018-06-02T15:42:35.094Z,29.50
2018-06-02T15:45:02.627Z,29.50
2018-06-02T15:47:30.140Z,29.90
2018-06-02T15:49:58.455Z,30.10
2018-06-02T15:52:26.127Z,30.10
2018-06-02T15:54:54.560Z,30.50
2018-06-02T15:57:22.833Z,30.40
2018-06-02T15:59:51.126Z,29.80
2018-06-02T16:02:18.634Z,29.80
2018-06-02T16:04:46.167Z,30.30
2018-06-02T16:07:13.676Z,30.40
2018-06-02T16:09:41.979Z,29.10
2018-06-02T16:12:09.514Z,29.10
2018-06-02T16:14:37.043Z,28.70
2018-06-02T16:17:04.560Z,28.20
2018-06-02T16:19:32.094Z,27.20
2018-06-02T16:21:59.624Z,27.00
2018-06-02T16:24:27.909Z,26.70
2018-06-02T16:26:55.417Z,26.70
2018-06-02T16:29:22.961Z,26.50
2018-06-02T16:31:50.463Z,26.20
2018-06-02T16:34:18.780Z,26.30
2018-06-02T16:36:46.294Z,26.30
2018-06-02T16:39:14.590Z,26.30
2018-06-02T16:41:42.099Z,26.30
2018-06-02T16:44:09.634Z,26.10
2018-06-02T16:46:37.142Z,25.80
2018-06-02T16:49:05.434Z,25.60
2018-06-02T16:51:33.018Z,25.60
2018-06-02T16:54:00.573Z,25.70
2018-06-02T16:56:28.086Z,25.70
2018-06-02T16:58:56.383Z,25.10
2018-06-02T17:01:23.925Z,25.10
2018-06-02T17:03:52.220Z,24.70
2018-06-02T17:06:19.774Z,24.70
2018-06-02T17:08:48.048Z,24.30
2018-06-02T17:11:15.549Z,24.30
2018-06-02T17:13:43.088Z,24.50
2018-06-02T17:16:10.597Z,24.80
2018-06-02T17:18:38.889Z,24.50
2018-06-02T17:21:06.416Z,24.50
2018-06-02T17:23:34.717Z,24.70
2018-06-02T17:26:02.231Z,24.70
2018-06-02T17:28:29.762Z,24.80
2018-06-02T17:30:57.270Z,24.40
2018-06-02T17:33:25.538Z,24.00
2018-06-02T17:35:53.849Z,24.00
2018-06-02T17:38:21.363Z,23.90
2018-06-02T17:40:49.662Z,23.60
2018-06-02T17:43:17.169Z,23.60
2018-06-02T17:45:44.693Z,23.80
2018-06-02T17:48:12.207Z,23.80
2018-06-02T17:50:40.501Z,23.70
2018-06-02T17:53:08.010Z,23.70
2018-06-02T17:55:35.550Z,23.70
2018-06-02T17:58:03.067Z,23.70
2018-06-02T18:00:30.601Z,23.50
2018-06-02T18:02:58.870Z,23.30
2018-06-02T18:05:26.393Z,23.30
2018-06-02T18:07:53.902Z,23.40
2018-06-02T18:10:22.214Z,23.10
2018-06-02T18:12:49.721Z,23.10
2018-06-02T18:15:18.019Z,22.80
2018-06-02T18:17:45.534Z,22.80
2018-06-02T18:20:13.057Z,22.90
2018-06-02T18:22:40.563Z,22.70
2018-06-02T18:25:08.871Z,22.70
2018-06-02T18:27:36.378Z,22.60
2018-06-02T18:30:03.907Z,22.60
2018-06-02T18:32:31.431Z,22.40
2018-06-02T18:34:59.002Z,22.40
2018-06-02T18:37:26.504Z,22.40
2018-06-02T18:39:54.040Z,22.30
2018-06-02T18:42:21.546Z,22.30
2018-06-02T18:44:49.086Z,22.10
2018-06-02T18:47:17.367Z,22.30
2018-06-02T18:49:45.662Z,22.30
2018-06-02T18:52:13.171Z,22.30
2018-06-02T18:54:40.715Z,22.20
2018-06-02T18:57:08.218Z,22.30
2018-06-02T18:59:35.753Z,22.10
2018-06-02T19:02:04.026Z,21.80
2018-06-02T19:04:31.551Z,21.80
2018-06-02T19:06:59.059Z,21.90
2018-06-02T19:09:27.362Z,21.80
2018-06-02T19:11:54.865Z,21.80
2018-06-02T19:14:22.398Z,21.80
2018-06-02T19:16:49.914Z,21.80
2018-06-02T19:19:17.450Z,21.70
2018-06-02T19:21:45.721Z,21.60
2018-06-02T19:24:14.024Z,21.60
2018-06-02T19:26:41.535Z,21.50
2018-06-02T19:29:09.075Z,21.50
2018-06-02T19:31:36.592Z,21.40
2018-06-02T19:34:04.136Z,21.40
2018-06-02T19:36:31.642Z,21.40
2018-06-02T19:38:59.166Z,21.30
2018-06-02T19:41:26.679Z,21.10
2018-06-02T19:43:54.186Z,21.00
2018-06-02T19:46:21.718Z,21.10
2018-06-02T19:48:49.222Z,21.10
2018-06-02T19:51:17.517Z,20.90
2018-06-02T19:53:45.026Z,20.80
2018-06-02T19:56:12.569Z,20.70
2018-06-02T19:58:40.815Z,20.70
2018-06-02T20:01:09.131Z,20.80
2018-06-02T20:03:36.634Z,20.80
2018-06-02T20:06:04.159Z,20.80
2018-06-02T20:08:31.660Z,20.70
2018-06-02T20:10:59.964Z,20.60
2018-06-02T20:13:27.470Z,20.60
2018-06-02T20:15:55.003Z,20.50
2018-06-02T20:18:22.508Z,20.40
2018-06-02T20:20:50.813Z,20.20
2018-06-02T20:23:18.322Z,20.20
2018-06-02T20:25:45.854Z,20.10
2018-06-02T20:28:13.366Z,19.90
2018-06-02T20:30:40.894Z,19.60
2018-06-02T20:33:09.179Z,20.00
2018-06-02T20:35:37.471Z,20.10
2018-06-02T20:38:04.982Z,20.10
2018-06-02T20:40:32.515Z,20.10
2018-06-02T20:43:00.026Z,20.10
2018-06-02T20:45:28.346Z,19.60
2018-06-02T20:47:55.847Z,19.60
2018-06-02T20:50:24.141Z,19.50
2018-06-02T20:52:51.669Z,19.50
2018-06-02T20:55:19.193Z,19.50
2018-06-02T20:57:46.702Z,19.20
2018-06-02T21:00:15.003Z,19.40
2018-06-02T21:02:42.523Z,19.40
2018-06-02T21:05:10.826Z,19.30
2018-06-02T21:07:38.345Z,19.30
2018-06-02T21:10:06.644Z,19.40
2018-06-02T21:12:34.149Z,19.40
2018-06-02T21:15:01.682Z,19.30
2018-06-02T21:17:29.190Z,19.20
2018-06-02T21:19:57.486Z,19.70
2018-06-02T21:22:25.002Z,19.70
2018-06-02T21:24:52.527Z,19.50
2018-06-02T21:27:20.033Z,19.30
2018-06-02T21:29:48.332Z,19.50
2018-06-02T21:32:15.845Z,19.50
2018-06-02T21:34:43.373Z,19.60
2018-06-02T21:37:10.882Z,19.50
2018-06-02T21:39:39.177Z,18.90
2018-06-02T21:42:06.679Z,18.80
2018-06-02T21:44:34.206Z,18.50
2018-06-02T21:47:01.732Z,18.40
2018-06-02T21:49:30.025Z,18.50
2018-06-02T21:51:57.558Z,18.60
2018-06-02T21:54:25.858Z,18.20
2018-06-02T21:56:53.382Z,18.20
2018-06-02T21:59:21.654Z,18.40
2018-06-02T22:01:50.004Z,19.00
2018-06-02T22:04:17.509Z,18.90
2018-06-02T22:06:45.046Z,18.90
2018-06-02T22:09:13.322Z,18.70
2018-06-02T22:11:41.613Z,18.60
2018-06-02T22:14:09.118Z,18.50
2018-06-02T22:16:36.647Z,18.30
2018-06-02T22:19:04.159Z,18.10
2018-06-02T22:21:32.457Z,17.70
2018-06-02T22:23:59.971Z,17.70
2018-06-02T22:26:27.510Z,17.60
2018-06-02T22:28:55.018Z,17.60
2018-06-02T22:31:22.563Z,17.90
2018-06-02T22:33:50.838Z,18.10
2018-06-02T22:36:19.158Z,17.80
2018-06-02T22:38:46.651Z,17.80
2018-06-02T22:41:14.189Z,17.80
2018-06-02T22:43:41.691Z,17.90
2018-06-02T22:46:09.982Z,18.10
2018-06-02T22:48:37.503Z,18.10
2018-06-02T22:51:05.797Z,17.70
2018-06-02T22:53:33.306Z,17.70
2018-06-02T22:56:00.830Z,17.60
2018-06-02T22:58:28.345Z,17.40
2018-06-02T23:00:56.646Z,17.20
2018-06-02T23:03:53.150Z,17.20
2018-06-02T23:06:21.703Z,17.60
2018-06-02T23:08:50.302Z,17.50
2018-06-02T23:11:18.738Z,17.40
2018-06-02T23:13:47.306Z,17.40
2018-06-02T23:16:15.722Z,17.30
2018-06-02T23:18:44.161Z,17.30
2018-06-02T23:21:12.590Z,17.40
2018-06-02T23:23:41.181Z,17.70
2018-06-02T23:26:09.589Z,17.70
2018-06-02T23:28:38.044Z,17.70
2018-06-02T23:31:06.491Z,17.60
2018-06-02T23:33:34.931Z,17.30
2018-06-02T23:36:03.387Z,17.20
2018-06-02T23:38:31.861Z,17.50
2018-06-02T23:41:00.285Z,17.80
2018-06-02T23:43:28.721Z,17.70
2018-06-02T23:45:57.126Z,17.60
2018-06-02T23:48:25.609Z,17.30
2018-06-02T23:50:54.025Z,17.20
2018-06-02T23:53:22.477Z,17.10
2018-06-02T23:55:50.890Z,17.20
2018-06-02T23:58:19.323Z,17.60
